Time;durP1;ratioP1;P1;durP2;ratioP2;P2;SDS_P1;SDS_P2;PMS_P1;PMS_P2;Temp;Humidity;BMP_temperature;BMP_pressure;BME280_temperature;BME280_humidity;BME280_pressure;Samples;Min_cycle;Max_cycle;Signal;HPM_P1;HPM_P2
2023/07/27 00:01:22;;;;;;;1999.90;999.90;;;14.00;99.90;;;;;;4793384;29;20055;-75
2023/07/27 00:03:48;;;;;;;1999.90;999.90;;;14.00;99.90;;;;;;4807720;29;20050;-75
2023/07/27 00:06:13;;;;;;;1999.90;999.90;;;14.00;99.90;;;;;;4808930;29;20482;-75
2023/07/27 00:08:39;;;;;;;1999.90;999.90;;;13.90;99.90;;;;;;4790723;29;20055;-75
2023/07/27 00:11:05;;;;;;;1999.90;999.90;;;13.90;99.90;;;;;;4807671;29;20533;-75
2023/07/27 00:13:31;;;;;;;1999.90;999.90;;;13.90;99.90;;;;;;4809053;29;20055;-75
2023/07/27 00:15:56;;;;;;;1999.90;999.90;;;13.90;99.90;;;;;;4808269;29;20492;-75
2023/07/27 00:18:22;;;;;;;1999.90;999.90;;;13.90;99.90;;;;;;4808712;29;20084;-75
2023/07/27 00:20:47;;;;;;;1999.90;999.90;;;13.90;99.90;;;;;;4808673;29;20051;-75
2023/07/27 00:23:13;;;;;;;1999.90;999.90;;;13.80;99.90;;;;;;4822652;29;20055;-75
2023/07/27 00:25:39;;;;;;;1999.90;999.90;;;13.80;99.90;;;;;;4808566;29;20090;-75
2023/07/27 00:28:05;;;;;;;1999.90;999.90;;;13.80;99.90;;;;;;4823287;29;20047;-75
2023/07/27 00:30:30;;;;;;;1999.90;999.90;;;13.80;99.90;;;;;;4822443;29;20137;-74
2023/07/27 00:32:57;;;;;;;1999.90;999.90;;;13.80;99.90;;;;;;4808418;29;20097;-76
2023/07/27 00:35:23;;;;;;;1999.90;999.90;;;13.70;99.90;;;;;;4808418;29;20054;-75
2023/07/27 00:37:48;;;;;;;1999.90;999.90;;;13.70;99.90;;;;;;4823266;29;20058;-76
2023/07/27 00:40:14;;;;;;;1999.90;999.90;;;13.70;99.90;;;;;;4807701;29;20476;-76
2023/07/27 00:42:40;;;;;;;1999.90;999.90;;;13.70;99.90;;;;;;4807695;29;20388;-75
2023/07/27 00:45:06;;;;;;;1999.90;999.90;;;13.60;99.90;;;;;;4822339;29;20054;-74
2023/07/27 00:47:32;;;;;;;1999.90;999.90;;;13.60;99.90;;;;;;4807960;29;20051;-74
2023/07/27 00:49:57;;;;;;;1999.90;999.90;;;13.60;99.90;;;;;;4822313;29;20062;-75
2023/07/27 00:52:23;;;;;;;1999.90;999.90;;;13.60;99.90;;;;;;4807679;29;20484;-75
2023/07/27 00:54:49;;;;;;;1999.90;999.90;;;13.60;99.90;;;;;;4807439;29;20054;-74
2023/07/27 00:57:15;;;;;;;1999.90;999.90;;;13.60;99.90;;;;;;4808079;29;20429;-75
2023/07/27 00:59:41;;;;;;;1999.90;999.90;;;13.60;99.90;;;;;;4806885;29;20606;-75
2023/07/27 01:02:07;;;;;;;1999.90;999.90;;;13.60;99.90;;;;;;4807974;29;20057;-75
2023/07/27 01:04:32;;;;;;;1999.90;999.90;;;13.60;99.90;;;;;;4807817;29;20129;-74
2023/07/27 01:06:58;;;;;;;1999.90;999.90;;;13.60;99.90;;;;;;4791892;29;20504;-75
2023/07/27 01:09:24;;;;;;;1999.90;999.90;;;13.50;99.90;;;;;;4821440;29;20051;-74
2023/07/27 01:12:01;;;;;;;1999.90;999.90;;;13.60;99.90;;;;;;4821963;29;20067;-74
2023/07/27 01:15:08;;;;;;;1999.90;999.90;;;13.50;99.90;;;;;;4807812;29;20057;-73
2023/07/27 01:17:52;;;;;;;1999.90;999.90;;;13.50;99.90;;;;;;4751864;30;20101;-74
2023/07/27 01:20:27;;;;;;;1999.90;999.90;;;13.50;99.90;;;;;;4752263;30;20523;-74
2023/07/27 01:23:07;;;;;;;1999.90;999.90;;;13.50;99.90;;;;;;4782698;29;20411;-74
2023/07/27 01:25:51;;;;;;;1999.90;999.90;;;13.50;99.90;;;;;;4807918;29;20472;-73
2023/07/27 01:28:20;;;;;;;1999.90;999.90;;;13.50;99.90;;;;;;4807510;29;20086;-74
2023/07/27 01:30:52;;;;;;;1999.90;999.90;;;13.60;99.90;;;;;;4807235;29;20055;-73
2023/07/27 01:33:24;;;;;;;1999.90;999.90;;;13.50;99.90;;;;;;4807325;29;20094;-74
2023/07/27 01:36:10;;;;;;;1999.90;999.90;;;13.60;99.90;;;;;;4807660;29;20062;-74
2023/07/27 01:38:44;;;;;;;1999.90;999.90;;;13.60;99.90;;;;;;4808300;29;20042;-73
2023/07/27 01:41:12;;;;;;;1999.90;999.90;;;13.60;99.90;;;;;;4807839;29;20058;-74
2023/07/27 01:43:40;;;;;;;1999.90;999.90;;;13.60;99.90;;;;;;4806158;29;20063;-74
2023/07/27 01:46:07;;;;;;;1999.90;999.90;;;13.60;99.90;;;;;;4807319;29;20493;-74
2023/07/27 01:48:35;;;;;;;1999.90;999.90;;;13.60;99.90;;;;;;4806042;29;20090;-74
2023/07/27 01:51:02;;;;;;;1999.90;999.90;;;13.70;99.90;;;;;;4807145;29;20053;-73
2023/07/27 01:53:29;;;;;;;1999.90;999.90;;;13.70;99.90;;;;;;4805680;29;20050;-74
2023/07/27 01:55:56;;;;;;;1999.90;999.90;;;13.70;99.90;;;;;;4807084;29;20069;-74
2023/07/27 01:58:23;;;;;;;1999.90;999.90;;;13.70;99.90;;;;;;4807004;29;20051;-74
2023/07/27 02:00:49;;;;;;;1999.90;999.90;;;13.80;99.90;;;;;;4821097;29;20058;-74
2023/07/27 02:03:15;;;;;;;1999.90;999.90;;;13.80;99.90;;;;;;4806842;29;20055;-75
2023/07/27 02:05:41;;;;;;;1999.90;999.90;;;13.80;99.90;;;;;;4806895;29;20054;-74
2023/07/27 02:08:07;;;;;;;1999.90;999.90;;;13.90;99.90;;;;;;4806786;29;20071;-74
2023/07/27 02:10:34;;;;;;;1999.90;999.90;;;13.80;99.90;;;;;;4806488;29;20130;-74
2023/07/27 02:13:10;;;;;;;1999.90;999.90;;;13.80;99.90;;;;;;4805801;29;20504;-75
2023/07/27 02:15:47;;;;;;;1999.90;999.90;;;13.80;99.90;;;;;;4805798;29;20051;-75
2023/07/27 02:18:22;;;;;;;1999.90;999.90;;;13.80;99.90;;;;;;4806556;29;20059;-75
2023/07/27 02:20:49;;;;;;;1999.90;999.90;;;13.80;99.90;;;;;;4806284;29;20545;-75
2023/07/27 02:23:16;;;;;;;1999.90;999.90;;;13.80;99.90;;;;;;4805443;29;20071;-75
2023/07/27 02:25:42;;;;;;;1999.90;999.90;;;13.80;99.90;;;;;;4791042;29;20047;-75
2023/07/27 02:28:10;;;;;;;1999.90;999.90;;;13.80;99.90;;;;;;4806467;29;20062;-75
2023/07/27 02:30:37;;;;;;;1999.90;999.90;;;13.80;99.90;;;;;;4821294;29;20127;-75
2023/07/27 02:33:03;;;;;;;1999.90;999.90;;;13.80;99.90;;;;;;4804964;29;20050;-75
2023/07/27 02:35:29;;;;;;;1999.90;999.90;;;13.80;99.90;;;;;;4790026;29;20530;-74
2023/07/27 02:37:54;;;;;;;1999.90;999.90;;;13.80;99.90;;;;;;4821503;29;20142;-74
2023/07/27 02:40:20;;;;;;;1999.90;999.90;;;13.80;99.90;;;;;;4806490;29;20127;-75
2023/07/27 02:42:46;;;;;;;1999.90;999.90;;;13.80;99.90;;;;;;4805287;29;20068;-74
2023/07/27 02:45:11;;;;;;;1999.90;999.90;;;13.80;99.90;;;;;;4806700;29;20058;-74
2023/07/27 02:47:37;;;;;;;1999.90;999.90;;;13.90;99.90;;;;;;4805164;29;20046;-75
2023/07/27 02:50:03;;;;;;;1999.90;999.90;;;13.80;99.90;;;;;;4790395;29;20055;-75
2023/07/27 02:52:29;;;;;;;1999.90;999.90;;;13.80;99.90;;;;;;4806184;29;20147;-76
2023/07/27 02:54:54;;;;;;;1999.90;999.90;;;13.90;99.90;;;;;;4805236;29;20061;-75
2023/07/27 02:57:20;;;;;;;1999.90;999.90;;;13.90;99.90;;;;;;4775811;29;20062;-75
2023/07/27 02:59:46;;;;;;;1999.90;999.90;;;13.90;99.90;;;;;;4805197;29;20103;-75
2023/07/27 03:02:11;;;;;;;1999.90;999.90;;;13.90;99.90;;;;;;4805172;29;20381;-75
2023/07/27 03:04:37;;;;;;;1999.90;999.90;;;13.90;99.90;;;;;;4805258;29;20107;-75
2023/07/27 03:07:03;;;;;;;1999.90;999.90;;;13.90;99.90;;;;;;4820299;29;20055;-74
2023/07/27 03:09:29;;;;;;;1999.90;999.90;;;13.90;99.90;;;;;;4806160;29;20439;-75
2023/07/27 03:11:55;;;;;;;1999.90;999.90;;;13.90;99.90;;;;;;4805151;29;20047;-75
2023/07/27 03:14:20;;;;;;;1999.90;999.90;;;13.90;99.90;;;;;;4790313;29;20050;-75
2023/07/27 03:16:46;;;;;;;1999.90;999.90;;;13.90;99.90;;;;;;4820381;29;20051;-75
2023/07/27 03:19:12;;;;;;;1999.90;999.90;;;14.00;99.90;;;;;;4805749;29;20054;-75
2023/07/27 03:21:37;;;;;;;1999.90;999.90;;;14.00;99.90;;;;;;4805906;29;20055;-74
2023/07/27 03:24:03;;;;;;;1999.90;999.90;;;14.00;99.90;;;;;;4819751;29;20050;-75
2023/07/27 03:26:29;;;;;;;1999.90;999.90;;;14.00;99.90;;;;;;4775544;29;20111;-75
2023/07/27 03:28:54;;;;;;;1999.90;999.90;;;14.00;99.90;;;;;;4806767;29;20046;-74
2023/07/27 03:31:23;;;;;;;1999.90;999.90;;;14.10;99.90;;;;;;4820437;29;20046;-74
2023/07/27 03:33:49;;;;;;;1999.90;999.90;;;14.10;99.90;;;;;;4805736;29;20051;-74
2023/07/27 03:36:16;;;;;;;1999.90;999.90;;;14.10;99.90;;;;;;4805302;29;20051;-74
2023/07/27 03:38:42;;;;;;;1999.90;999.90;;;14.10;99.90;;;;;;4805990;29;20058;-74
2023/07/27 03:41:08;;;;;;;1999.90;999.90;;;14.10;99.90;;;;;;4805932;29;20401;-74
2023/07/27 03:43:33;;;;;;;1999.90;999.90;;;14.10;99.90;;;;;;4806123;29;20122;-74
2023/07/27 03:45:59;;;;;;;1999.90;999.90;;;14.20;99.90;;;;;;4821460;29;20058;-74
2023/07/27 03:48:25;;;;;;;1999.90;999.90;;;14.20;99.90;;;;;;4809340;29;20051;-74
2023/07/27 03:50:52;;;;;;;1999.90;999.90;;;14.20;99.90;;;;;;4809247;29;20112;-74
2023/07/27 03:53:18;;;;;;;1999.90;999.90;;;14.20;99.90;;;;;;4809160;29;20061;-74
2023/07/27 03:55:45;;;;;;;1999.90;999.90;;;14.20;99.90;;;;;;4809075;29;20084;-74
2023/07/27 03:58:10;;;;;;;1999.90;999.90;;;14.20;99.90;;;;;;4809103;29;20051;-74
2023/07/27 04:00:36;;;;;;;1999.90;999.90;;;14.30;99.90;;;;;;4808235;29;20055;-74
2023/07/27 04:03:02;;;;;;;1999.90;999.90;;;14.30;99.90;;;;;;4808292;29;20399;-73
2023/07/27 04:05:28;;;;;;;1999.90;999.90;;;14.30;99.90;;;;;;4823277;29;20055;-75
2023/07/27 04:07:53;;;;;;;1999.90;999.90;;;14.30;99.90;;;;;;4792481;29;20063;-74
2023/07/27 04:10:19;;;;;;;1999.90;999.90;;;14.30;99.90;;;;;;4793069;29;20051;-73
2023/07/27 04:12:45;;;;;;;1999.90;999.90;;;14.30;99.90;;;;;;4792985;29;20511;-75
2023/07/27 04:15:10;;;;;;;1999.90;999.90;;;14.30;99.90;;;;;;4822902;29;20393;-74
2023/07/27 04:17:36;;;;;;;1999.90;999.90;;;14.30;99.90;;;;;;4778122;29;20050;-73
2023/07/27 04:20:02;;;;;;;1999.90;999.90;;;14.30;99.90;;;;;;4807607;29;20381;-76
2023/07/27 04:22:28;;;;;;;1999.90;999.90;;;14.30;99.90;;;;;;4808629;29;20084;-75
2023/07/27 04:24:56;;;;;;;1999.90;999.90;;;14.30;99.90;;;;;;4809073;29;20484;-75
2023/07/27 04:27:22;;;;;;;1999.90;999.90;;;14.30;99.90;;;;;;4807619;29;20050;-75
2023/07/27 04:29:48;;;;;;;1999.90;999.90;;;14.30;99.90;;;;;;4807422;29;20055;-73
2023/07/27 04:32:13;;;;;;;1999.90;999.90;;;14.30;99.90;;;;;;4808833;29;20054;-74
2023/07/27 04:34:39;;;;;;;1999.90;999.90;;;14.30;99.90;;;;;;4807319;29;20129;-74
2023/07/27 04:37:05;;;;;;;1999.90;999.90;;;14.30;99.90;;;;;;4808628;29;20066;-74
2023/07/27 04:39:30;;;;;;;1999.90;999.90;;;14.30;99.90;;;;;;4822449;29;20117;-75
2023/07/27 04:41:56;;;;;;;1999.90;999.90;;;14.30;99.90;;;;;;4808453;29;20110;-75
2023/07/27 04:44:22;;;;;;;1999.90;999.90;;;14.30;99.90;;;;;;4807435;29;20054;-75
2023/07/27 04:46:48;;;;;;;1999.90;999.90;;;14.40;99.90;;;;;;4822376;29;20463;-76
2023/07/27 04:49:14;;;;;;;1999.90;999.90;;;14.40;99.90;;;;;;4822168;29;20138;-75
2023/07/27 04:51:39;;;;;;;1999.90;999.90;;;14.40;99.90;;;;;;4808274;29;20054;-76
2023/07/27 04:54:05;;;;;;;1999.90;999.90;;;14.40;99.90;;;;;;4807155;29;20090;-75
2023/07/27 04:56:31;;;;;;;1999.90;999.90;;;14.40;99.90;;;;;;4822657;29;20059;-76
2023/07/27 04:58:57;;;;;;;1999.90;999.90;;;14.40;99.90;;;;;;4811572;29;20051;-76
2023/07/27 05:01:23;;;;;;;1999.90;999.90;;;14.40;99.90;;;;;;4807109;29;20050;-75
2023/07/27 05:03:48;;;;;;;1999.90;999.90;;;14.40;99.90;;;;;;4821563;29;20053;-76
2023/07/27 05:06:14;;;;;;;1999.90;999.90;;;14.50;99.90;;;;;;4807964;29;20138;-75
2023/07/27 05:08:40;;;;;;;1999.90;999.90;;;14.40;99.90;;;;;;4807866;29;20110;-75
2023/07/27 05:11:06;;;;;;;1999.90;999.90;;;14.50;99.90;;;;;;4807506;29;20058;-76
2023/07/27 05:13:32;;;;;;;1999.90;999.90;;;14.50;99.90;;;;;;4808397;29;20515;-75
2023/07/27 05:15:58;;;;;;;1999.90;999.90;;;14.50;99.90;;;;;;4808300;29;20094;-76
2023/07/27 05:18:24;;;;;;;1999.90;999.90;;;14.50;99.90;;;;;;4806777;29;20492;-75
2023/07/27 05:20:50;;;;;;;1999.90;999.90;;;14.50;99.90;;;;;;4808089;29;20061;-75
2023/07/27 05:23:16;;;;;;;1999.90;999.90;;;14.50;99.90;;;;;;4806512;29;20046;-75
2023/07/27 05:25:41;;;;;;;1999.90;999.90;;;14.50;99.90;;;;;;4806508;29;20058;-75
2023/07/27 05:28:07;;;;;;;1999.90;999.90;;;14.50;99.90;;;;;;4821562;29;20476;-75
2023/07/27 05:30:33;;;;;;;1999.90;999.90;;;14.50;99.90;;;;;;4776931;29;20059;-74
2023/07/27 05:32:59;;;;;;;1999.90;999.90;;;14.50;99.90;;;;;;4806438;29;20055;-75
2023/07/27 05:35:25;;;;;;;1999.90;999.90;;;14.50;99.90;;;;;;4806425;29;20485;-74
2023/07/27 05:37:50;;;;;;;1999.90;999.90;;;14.50;99.90;;;;;;4821532;29;20047;-75
2023/07/27 05:40:16;;;;;;;1999.90;999.90;;;14.50;99.90;;;;;;4806466;29;20108;-74
2023/07/27 05:42:43;;;;;;;1999.90;999.90;;;14.50;99.90;;;;;;4807300;29;20057;-74
2023/07/27 05:45:09;;;;;;;1999.90;999.90;;;14.50;99.90;;;;;;4807359;29;20078;-75
2023/07/27 05:47:35;;;;;;;1999.90;999.90;;;14.50;99.90;;;;;;4790994;29;20070;-74
2023/07/27 05:50:01;;;;;;;1999.90;999.90;;;14.50;99.90;;;;;;4806073;29;20047;-74
2023/07/27 05:52:27;;;;;;;1999.90;999.90;;;14.50;99.90;;;;;;4806224;29;20055;-74
2023/07/27 05:54:53;;;;;;;1999.90;999.90;;;14.50;99.90;;;;;;4805996;29;20054;-74
2023/07/27 05:57:19;;;;;;;1999.90;999.90;;;14.50;99.90;;;;;;4806098;29;20085;-74
2023/07/27 05:59:44;;;;;;;1999.90;999.90;;;14.50;99.90;;;;;;4806140;29;20408;-74
2023/07/27 06:02:10;;;;;;;1999.90;999.90;;;14.50;99.90;;;;;;4806040;29;20065;-73
2023/07/27 06:04:36;;;;;;;1999.90;999.90;;;14.50;99.90;;;;;;4807699;29;20055;-74
2023/07/27 06:07:05;;;;;;;1999.90;999.90;;;14.60;99.90;;;;;;4807838;29;20549;-74
2023/07/27 06:09:31;;;;;;;1999.90;999.90;;;14.60;99.90;;;;;;4804745;29;20056;-74
2023/07/27 06:11:57;;;;;;;1999.90;999.90;;;14.60;99.90;;;;;;4806167;29;20055;-74
2023/07/27 06:14:23;;;;;;;1999.90;999.90;;;14.60;99.90;;;;;;4806640;29;20084;-74
2023/07/27 06:16:49;;;;;;;1999.90;999.90;;;14.60;99.90;;;;;;4806840;29;20051;-74
2023/07/27 06:19:14;;;;;;;1999.90;999.90;;;14.60;99.90;;;;;;4805953;29;20078;-74
2023/07/27 06:21:40;;;;;;;1999.90;999.90;;;14.60;99.90;;;;;;4821377;29;20469;-73
2023/07/27 06:24:08;;;;;;;1999.90;999.90;;;14.60;99.90;;;;;;4806843;29;20051;-74
2023/07/27 06:26:33;;;;;;;1999.90;999.90;;;14.70;99.90;;;;;;4791260;29;20066;-73
2023/07/27 06:28:59;;;;;;;1999.90;999.90;;;14.70;99.90;;;;;;4806623;29;20069;-74
2023/07/27 06:31:25;;;;;;;1999.90;999.90;;;14.70;99.90;;;;;;4805553;29;20117;-73
2023/07/27 06:33:51;;;;;;;1999.90;999.90;;;14.80;99.90;;;;;;4806826;29;20059;-74
2023/07/27 06:36:17;;;;;;;1999.90;999.90;;;14.80;99.90;;;;;;4806267;29;20147;-74
2023/07/27 06:38:43;;;;;;;1999.90;999.90;;;14.80;99.90;;;;;;4790666;29;20484;-74
2023/07/27 06:41:09;;;;;;;1999.90;999.90;;;14.90;99.90;;;;;;4806446;29;20457;-74
2023/07/27 06:43:35;;;;;;;1999.90;999.90;;;14.90;99.90;;;;;;4807038;29;20055;-74
2023/07/27 06:46:01;;;;;;;1999.90;999.90;;;15.00;99.90;;;;;;4820679;29;20103;-74
2023/07/27 06:48:26;;;;;;;1999.90;999.90;;;15.00;99.90;;;;;;4805082;29;20046;-74
2023/07/27 06:50:52;;;;;;;1999.90;999.90;;;15.00;99.90;;;;;;4820440;29;20161;-74
2023/07/27 06:53:18;;;;;;;1999.90;999.90;;;15.10;99.90;;;;;;4790588;29;20511;-73
2023/07/27 06:55:44;;;;;;;1999.90;999.90;;;15.10;99.90;;;;;;4806927;29;20055;-74
2023/07/27 06:58:09;;;;;;;1999.90;999.90;;;15.20;99.90;;;;;;4806374;29;20514;-74
2023/07/27 07:00:36;;;;;;;1999.90;999.90;;;15.20;99.90;;;;;;4790446;29;20450;-74
2023/07/27 07:03:01;;;;;;;1999.90;999.90;;;15.20;99.90;;;;;;4790792;29;20055;-73
2023/07/27 07:05:27;;;;;;;1999.90;999.90;;;15.30;99.90;;;;;;4805467;29;20384;-74
2023/07/27 07:07:53;;;;;;;1999.90;999.90;;;15.40;99.90;;;;;;4804829;29;20088;-74
2023/07/27 07:10:19;;;;;;;1999.90;999.90;;;15.40;99.90;;;;;;4820690;29;20055;-74
2023/07/27 07:12:45;;;;;;;1999.90;999.90;;;15.50;99.90;;;;;;4823899;29;20051;-74
2023/07/27 07:15:11;;;;;;;1999.90;999.90;;;15.50;99.90;;;;;;4820813;29;20080;-74
2023/07/27 07:17:37;;;;;;;1999.90;999.90;;;15.50;99.90;;;;;;4775304;29;20055;-73
2023/07/27 07:20:08;;;;;;;1999.90;999.90;;;15.50;99.90;;;;;;4792547;29;20138;-73
2023/07/27 07:22:34;;;;;;;1999.90;999.90;;;15.60;99.90;;;;;;4810621;29;20090;-72
2023/07/27 07:24:59;;;;;;;1999.90;999.90;;;15.60;99.90;;;;;;4810574;29;20157;-74
2023/07/27 07:27:25;;;;;;;1999.90;999.90;;;15.60;99.90;;;;;;4811046;29;20149;-72
2023/07/27 07:29:51;;;;;;;1999.90;999.90;;;15.60;99.90;;;;;;4810283;29;20053;-73
2023/07/27 07:32:17;;;;;;;1999.90;999.90;;;15.60;99.90;;;;;;4795056;29;20078;-73
2023/07/27 07:34:42;;;;;;;1999.90;999.90;;;15.60;99.90;;;;;;4809125;29;20046;-73
2023/07/27 07:37:08;;;;;;;1999.90;999.90;;;15.60;99.90;;;;;;4810176;29;20489;-73
2023/07/27 07:39:34;;;;;;;1999.90;999.90;;;15.60;99.90;;;;;;4793629;29;20047;-73
2023/07/27 07:42:00;;;;;;;1999.90;999.90;;;15.60;99.90;;;;;;4810149;29;20055;-73
2023/07/27 07:44:27;;;;;;;1999.90;999.90;;;15.60;99.90;;;;;;4811328;29;20509;-74
2023/07/27 07:46:53;;;;;;;1999.90;999.90;;;15.70;99.90;;;;;;4809546;29;20063;-74
2023/07/27 07:49:19;;;;;;;1999.90;999.90;;;15.70;99.90;;;;;;4793551;29;20498;-74
2023/07/27 07:51:44;;;;;;;1999.90;999.90;;;15.60;99.90;;;;;;4808470;29;20135;-75
2023/07/27 07:54:10;;;;;;;1999.90;999.90;;;15.60;99.90;;;;;;4794214;29;20047;-75
2023/07/27 07:56:36;;;;;;;1999.90;999.90;;;15.70;99.90;;;;;;4808685;29;20059;-77
2023/07/27 07:59:03;;;;;;;1999.90;999.90;;;15.70;99.90;;;;;;4809626;29;20042;-76
2023/07/27 08:01:28;;;;;;;1999.90;999.90;;;15.70;99.90;;;;;;4793114;29;20145;-77
2023/07/27 08:03:54;;;;;;;1999.90;999.90;;;15.70;99.90;;;;;;4808196;29;20134;-76
2023/07/27 08:06:20;;;;;;;1999.90;999.90;;;15.70;99.90;;;;;;4808215;29;20054;-75
2023/07/27 08:08:46;;;;;;;1999.90;999.90;;;15.80;99.90;;;;;;4807748;29;20062;-76
2023/07/27 08:11:12;;;;;;;1999.90;999.90;;;15.80;99.90;;;;;;4808398;29;20500;-76
2023/07/27 08:13:37;;;;;;;1999.90;999.90;;;15.90;99.90;;;;;;4793341;29;20057;-75
2023/07/27 08:16:03;;;;;;;1999.90;999.90;;;15.90;99.90;;;;;;4809255;29;20400;-74
2023/07/27 08:18:31;;;;;;;1999.90;999.90;;;15.90;99.90;;;;;;4808973;29;20050;-73
2023/07/27 08:21:05;;;;;;;1999.90;999.90;;;16.00;99.90;;;;;;4812352;29;20445;-74
2023/07/27 08:23:31;;;;;;;1999.90;999.90;;;16.00;99.90;;;;;;4810185;29;20054;-74
2023/07/27 08:25:58;;;;;;;1999.90;999.90;;;16.10;99.90;;;;;;4809806;29;20078;-75
2023/07/27 08:28:24;;;;;;;1999.90;999.90;;;16.10;99.90;;;;;;4810964;29;20067;-74
2023/07/27 08:30:50;;;;;;;1999.90;999.90;;;16.20;99.90;;;;;;4808245;29;20142;-75
2023/07/27 08:33:17;;;;;;;1999.90;999.90;;;16.10;99.90;;;;;;4807531;29;20070;-75
2023/07/27 08:35:43;;;;;;;1999.90;999.90;;;16.20;99.90;;;;;;4808394;29;20146;-76
2023/07/27 08:38:09;;;;;;;1999.90;999.90;;;16.20;99.90;;;;;;4808243;29;20461;-77
2023/07/27 08:40:35;;;;;;;1999.90;999.90;;;16.10;99.90;;;;;;4807017;29;20108;-75
2023/07/27 08:43:05;;;;;;;1999.90;999.90;;;16.10;99.90;;;;;;4808130;29;20088;-75
2023/07/27 08:45:31;;;;;;;1999.90;999.90;;;16.10;99.90;;;;;;4807145;29;20047;-75
2023/07/27 08:47:58;;;;;;;1999.90;999.90;;;16.10;99.90;;;;;;4807828;29;20050;-76
2023/07/27 08:50:24;;;;;;;1999.90;999.90;;;16.10;99.90;;;;;;4807120;29;20065;-75
2023/07/27 08:52:50;;;;;;;1999.90;999.90;;;16.10;99.90;;;;;;4808453;29;20051;-75
2023/07/27 08:55:16;;;;;;;1999.90;999.90;;;16.20;99.90;;;;;;4807801;29;20158;-75
2023/07/27 08:57:42;;;;;;;1999.90;999.90;;;16.20;99.90;;;;;;4822057;29;20055;-75
2023/07/27 09:00:11;;;;;;;1999.90;999.90;;;16.20;99.90;;;;;;4792245;29;20059;-75
2023/07/27 09:02:38;;;;;;;1999.90;999.90;;;16.20;99.90;;;;;;4807192;29;20121;-75
2023/07/27 09:05:06;;;;;;;1999.90;999.90;;;16.20;99.90;;;;;;4792426;29;20059;-75
2023/07/27 09:07:31;;;;;;;1999.90;999.90;;;16.20;99.90;;;;;;4808661;29;20111;-75
2023/07/27 09:09:57;;;;;;;1999.90;999.90;;;16.30;99.90;;;;;;4808163;29;20149;-75
2023/07/27 09:12:24;;;;;;;1999.90;999.90;;;16.30;99.90;;;;;;4808781;29;20062;-74
2023/07/27 09:14:50;;;;;;;1999.90;999.90;;;16.30;99.90;;;;;;4794370;29;20064;-74
2023/07/27 09:17:16;;;;;;;1999.90;999.90;;;16.30;99.90;;;;;;4810121;29;20408;-74
2023/07/27 09:19:43;;;;;;;1999.90;999.90;;;16.30;99.90;;;;;;4809928;29;20047;-74
2023/07/27 09:22:10;;;;;;;1999.90;999.90;;;16.30;99.90;;;;;;4808528;29;20046;-74
2023/07/27 09:24:36;;;;;;;1999.90;999.90;;;16.30;99.90;;;;;;4806864;29;20050;-76
2023/07/27 09:27:09;;;;;;;1999.90;999.90;;;16.30;99.90;;;;;;4807273;29;20062;-76
2023/07/27 09:29:35;;;;;;;1999.90;999.90;;;16.30;99.90;;;;;;4811827;29;20111;-75
2023/07/27 09:32:01;;;;;;;1999.90;999.90;;;16.30;99.90;;;;;;4791665;29;20051;-76
2023/07/27 09:34:29;;;;;;;1999.90;999.90;;;16.40;99.90;;;;;;4806582;29;20050;-75
2023/07/27 09:37:08;;;;;;;1999.90;999.90;;;16.40;99.90;;;;;;4807585;29;20061;-76
2023/07/27 09:39:42;;;;;;;1999.90;999.90;;;16.30;99.90;;;;;;4807641;29;20074;-75
2023/07/27 09:42:10;;;;;;;1999.90;999.90;;;16.40;99.90;;;;;;4807380;29;20098;-75
2023/07/27 09:44:48;;;;;;;1999.90;999.90;;;16.40;99.90;;;;;;4806300;29;20518;-75
2023/07/27 09:47:21;;;;;;;1999.90;999.90;;;16.40;99.90;;;;;;4806812;29;20071;-75
2023/07/27 09:49:49;;;;;;;;;;;16.40;99.90;;;;;;4806641;29;20057;-75
2023/07/27 09:52:18;;;;;;;1999.90;999.90;;;16.40;99.90;;;;;;4806592;29;19932;-75
2023/07/27 09:54:47;;;;;;;1999.90;999.90;;;16.50;99.90;;;;;;4806335;29;20062;-75
2023/07/27 09:57:14;;;;;;;1999.90;999.90;;;16.50;99.90;;;;;;4806020;29;20073;-75
2023/07/27 09:59:41;;;;;;;1999.90;999.90;;;16.50;99.90;;;;;;4806526;29;20133;-75
2023/07/27 10:02:07;;;;;;;1999.90;999.90;;;16.60;99.90;;;;;;4807174;29;20058;-75
2023/07/27 10:04:33;;;;;;;1999.90;999.90;;;16.60;99.90;;;;;;4806120;29;20050;-75
2023/07/27 10:06:59;;;;;;;1999.90;999.90;;;16.60;99.90;;;;;;4775934;29;20107;-75
2023/07/27 10:09:24;;;;;;;1999.90;999.90;;;16.70;99.90;;;;;;4807119;29;20096;-74
2023/07/27 10:11:57;;;;;;;1999.90;999.90;;;16.70;99.90;;;;;;4806659;29;20139;-75
2023/07/27 10:14:27;;;;;;;1999.90;999.90;;;16.70;99.90;;;;;;4806918;29;20411;-74
2023/07/27 10:17:03;;;;;;;1999.90;999.90;;;16.80;99.90;;;;;;4806237;29;20054;-79
2023/07/27 10:19:43;;;;;;;1999.90;999.90;;;16.80;99.90;;;;;;4806116;29;20055;-78
2023/07/27 10:22:15;;;;;;;1999.90;999.90;;;16.80;99.90;;;;;;4807173;29;20089;-79
2023/07/27 10:25:02;;;;;;;1999.90;999.90;;;16.80;99.90;;;;;;4807054;29;20066;-79
2023/07/27 10:27:55;;;;;;;1999.90;999.90;;;16.50;99.90;;;;;;4807703;29;20122;-80
2023/07/27 10:30:25;;;;;;;1999.90;999.90;;;16.70;99.90;;;;;;4807944;29;20055;-79
2023/07/27 10:33:15;;;;;;;1999.90;999.90;;;16.70;99.90;;;;;;4791180;29;20404;-80
2023/07/27 10:36:00;;;;;;;1999.90;999.90;;;16.70;99.90;;;;;;4792626;29;20054;-81
2023/07/27 10:38:27;;;;;;;1999.90;999.90;;;16.70;99.90;;;;;;4805288;29;20051;-80
2023/07/27 10:41:20;;;;;;;1999.90;999.90;;;16.80;99.90;;;;;;4792208;29;20058;-80
2023/07/27 10:44:09;;;;;;;1999.90;999.90;;;16.80;99.90;;;;;;4790972;29;20062;-81
2023/07/27 10:46:59;;;;;;;1999.90;999.90;;;16.80;99.90;;;;;;4819691;29;20090;-80
2023/07/27 10:49:46;;;;;;;1999.90;999.90;;;16.80;99.90;;;;;;4794831;29;20096;-81
2023/07/27 10:52:45;;;;;;;1999.90;999.90;;;16.80;99.90;;;;;;4805748;29;20123;-79
2023/07/27 10:55:26;;;;;;;1999.90;999.90;;;16.80;99.90;;;;;;4809547;29;20059;-79
2023/07/27 10:58:09;;;;;;;1999.90;999.90;;;16.80;99.90;;;;;;4795662;29;20055;-80
2023/07/27 11:00:38;;;;;;;1999.90;999.90;;;16.80;99.90;;;;;;4796715;29;20043;-80
2023/07/27 11:03:04;;;;;;;1999.90;999.90;;;16.80;99.90;;;;;;4793348;29;20071;-81
2023/07/27 11:05:40;;;;;;;1999.90;999.90;;;16.80;99.90;;;;;;4796221;29;20062;-80
2023/07/27 11:08:30;;;;;;;1999.90;999.90;;;16.80;99.90;;;;;;4810024;29;20187;-80
2023/07/27 11:11:19;;;;;;;1999.90;999.90;;;16.80;99.90;;;;;;4810906;29;20051;-78
2023/07/27 11:14:06;;;;;;;1999.90;999.90;;;16.80;99.90;;;;;;4766548;29;20054;-80
2023/07/27 11:16:52;;;;;;;1999.90;999.90;;;16.80;99.90;;;;;;4812453;29;20139;-80
2023/07/27 11:19:24;;;;;;;1999.90;999.90;;;16.80;99.90;;;;;;4809028;29;20602;-80
2023/07/27 11:21:51;;;;;;;1999.90;999.90;;;16.70;99.90;;;;;;4811571;29;20070;-80
2023/07/27 11:24:18;;;;;;;1999.90;999.90;;;16.80;99.90;;;;;;4811589;29;20136;-80
2023/07/27 11:26:47;;;;;;;1999.90;999.90;;;16.80;99.90;;;;;;4810872;29;20062;-80
2023/07/27 11:29:33;;;;;;;1999.90;999.90;;;16.80;99.90;;;;;;4798370;29;20420;-80
2023/07/27 11:32:01;;;;;;;1999.90;999.90;;;17.90;99.90;;;;;;4810131;29;20054;-79
2023/07/27 11:34:47;;;;;;;1999.90;999.90;;;16.80;99.90;;;;;;4811637;29;20046;-79
2023/07/27 11:38:22;;;;;;;1999.90;999.90;;;16.80;99.90;;;;;;4780861;29;20111;-79
2023/07/27 11:40:55;;;;;;;1999.90;999.90;;;16.90;99.90;;;;;;4811520;29;20054;-80
2023/07/27 11:43:29;;;;;;;1999.90;999.90;;;16.90;99.90;;;;;;4797905;29;20112;-79
2023/07/27 11:46:03;;;;;;;1999.90;999.90;;;16.90;99.90;;;;;;4811622;29;20496;-79
2023/07/27 11:48:32;;;;;;;1999.90;999.90;;;16.90;99.90;;;;;;4810997;29;20080;-80
2023/07/27 11:55:19;;;;;;;1999.90;999.90;;;16.90;99.90;;;;;;4811877;29;20091;-78
2023/07/27 11:59:06;;;;;;;1999.90;999.90;;;16.90;99.90;;;;;;4811731;29;20058;-76
2023/07/27 12:05:38;;;;;;;1999.90;999.90;;;16.90;99.90;;;;;;4736559;30;20069;-77
2023/07/27 12:12:26;;;;;;;1999.90;999.90;;;17.00;99.90;;;;;;4736023;30;20092;-77
2023/07/27 12:15:47;;;;;;;1999.90;999.90;;;17.00;99.90;;;;;;4735009;30;20126;-76
2023/07/27 12:18:35;;;;;;;1999.90;999.90;;;17.10;99.90;;;;;;4735383;30;20051;-76
2023/07/27 12:21:04;;;;;;;1999.90;999.90;;;17.10;99.90;;;;;;4720316;30;20103;-76